No particular awareness of the weather is required.    There are no Weather-warnings

Οι άλλοι ιστότοποί μου:

SYKIA HOMEWEATHERSTATIONsikeaweather.alinos.eu

SYKIA METEOTEMPLATEsykiameteo.alinos.eu

alinos.eualinos.eu



Αναφορές γειτονικών METAR

   
LGEL - Elefsis (hel-Afb, Greece
Απόσταση από τον σταθμό: Α 77 km
Ενημερώθηκε: 25-04-2019 23:20
Διάσπαρτα νέφη  
Διάσπαρτα νέφη  
   Ανεμος: μεταβλητός 5.6 km/h
Ανεμος: μεταβλητός 5.6 km/h
Θερμοκρασία: 16°C
Σημείο Δρόσου: 11°C
Υγρασία: 72%
Βαρόμετρο: 1020 hPa
Νεφώσεις: Διάσπαρτα νέφη
Ορατότητα: More than 10 km
Στοιχεία νεφών: Διάσπαρτα νέφη 2500 ft
LGEL 252020Z VRB03KT 9999 FEW025 16/11 Q1020
LGRX - Araxos (civ/Afb), Greece
Απόσταση από τον σταθμό: Δ 110 km
Ενημερώθηκε: 25-04-2019 22:50
Μερικώς νεφελώδης  
Μερικώς νεφελώδης  
   Ανεμος: ΑΒΑ 13 km/h
Ανεμος: ΑΒΑ 13 km/h
Θερμοκρασία: 17°C
Σημείο Δρόσου: 12°C
Υγρασία: 73%
Βαρόμετρο: 1020 hPa
Νεφώσεις: Μερικώς νεφελώδης
Ορατότητα: More than 10 km
Στοιχεία νεφών: Διάσπαρτα νέφη 2000 ft,
Μερικώς νεφελώδης 8000 ft
LGRX 251950Z 06007KT 9999 FEW020 SCT080 17/12 Q1020
LGAV - Athens/Elef-Ven, Greece
Απόσταση από τον σταθμό: Α 113 km
Ενημερώθηκε: 25-04-2019 23:20
Διάσπαρτα νέφη  
Διάσπαρτα νέφη  
   Ανεμος: μεταβλητός 1.9 km/h
Ανεμος: μεταβλητός 1.9 km/h
Θερμοκρασία: 15°C
Σημείο Δρόσου: 13°C
Υγρασία: 88%
Βαρόμετρο: 1022 hPa
Νεφώσεις: Διάσπαρτα νέφη
Ορατότητα: More than 10 km
Στοιχεία νεφών: Διάσπαρτα νέφη 3000 ft
LGAV 252020Z VRB01KT 9999 FEW030 15/13 Q1022 NOSIG
LGAD - Andravida (civ/A, Greece
Απόσταση από τον σταθμό: Δ 124 km
Ενημερώθηκε: 25-04-2019 23:20
Σχεδόν νεφελώδης  
Σχεδόν νεφελώδης  
   Ανεμος: Απνοια
Ανεμος: Απνοια
Θερμοκρασία: 14°C
Σημείο Δρόσου: 11°C
Υγρασία: 82%
Βαρόμετρο: 1019 hPa
Νεφώσεις: Σχεδόν νεφελώδης
Ορατότητα: More than 10 km
Στοιχεία νεφών: Διάσπαρτα νέφη 2000 ft,
Σχεδόν νεφελώδης 8000 ft
LGAD 252020Z 00000KT 9999 FEW020 BKN080 14/11 Q1019
LGKL - Kalamata (hel-Af, Greece
Απόσταση από τον σταθμό: ΝΝΔ 124 km
Ενημερώθηκε: 25-04-2019 23:20
Σχεδόν νεφελώδης  
Σχεδόν νεφελώδης  
   Ανεμος: Απνοια
Ανεμος: Απνοια
Θερμοκρασία: 15°C
Σημείο Δρόσου: 11°C
Υγρασία: 77%
Βαρόμετρο: 1019 hPa
Νεφώσεις: Σχεδόν νεφελώδης
Ορατότητα: More than 10 km
Στοιχεία νεφών: Σχεδόν νεφελώδης 8000 ft
LGKL 252020Z 00000KT 9999 BKN080 15/11 Q1019
LGBL - Nea Anchialos, Greece
Απόσταση από τον σταθμό: Β 129 km
Ενημερώθηκε: 25-04-2019 22:50
Μερικώς νεφελώδης  
Μερικώς νεφελώδης  
   Ανεμος: ΔΝΔ 7.4 km/h
Ανεμος: ΔΝΔ 7.4 km/h
Θερμοκρασία: 14°C
Σημείο Δρόσου: 14°C
Υγρασία: 100%
Βαρόμετρο: 1021 hPa
Νεφώσεις: Μερικώς νεφελώδης
Ορατότητα: 8 km
Στοιχεία νεφών: Διάσπαρτα νέφη 3000 ft,
Μερικώς νεφελώδης 8000 ft
LGBL 251950Z 24004KT 8000 FEW030 SCT080 14/14 Q1021

Αρχική γραφή από  Saratoga-weather.org Προσαρμογή στον ιστότοπο από  Weerstation Leuven

Βλέπε επίσης τις ενημερώσεις τού σταθμού μας στα παρακάτω δίκτυα:

European Weather Network

Weather Underground

AWEKAS

Citizen Weather Observer Program (CWOP)

HAMweather, WeatherForYou, PWS Weather

UK Metoffice

Equipment we use:

Μετεωρολογικός σταθμός
Davis Wireless Vantage Pro2

Davis Wireless Vantage Pro2